Portada
METAR-TAF:

METAR-TAF

Aeroports :

Dothan, Alabama, Estats Units d'Amèrica

latitud: 31-19-17N, longitud: 085-26-59W, altitud: 122 m

Observació

L'informe es va fer fa 1 hora i 10 minuts, a les 06:53 UTC
Vent 3 kt del Nord
Temperatura 19°C
Humitat 64%
Pressió 1021 hPa
Visibilitat: 16.1 km
Cel clar

METAR: KDHN 300653Z AUTO 35003KT 10SM CLR 19/12 A3016 RMK AO2 SLP208 T01890122

Hora: 03:03 (08:03 UTC)

Pronòstic

L'informe es va fer fa 2 hores i 37 minuts, a les 05:26 UTC
Pronòstic vàlid del 30 a les 06 UTC al 31 a les 06 UTC
Vent 4 kt del Nord/Nord-Oest
Visibilitat: 10 km
Núvols disperses a una alçada de 8000 ft
A partir de les 30 a les 1800 UTC
Vent 6 kt del Est/Nord-Est
Visibilitat: 10 km
Cel ennuvolat a una alçada de 20000 ft

TAF: KDHN 300526Z 3006/3106 34004KT P6SM SCT080 FM301800 06006KT P6SM BKN200

Observacions i pronòstics meteorològics de més de 4000 aeroports (METAR i TAF).

Les estacions disponibles són els punts grocs i vermells al mapa.

Posi el ratolí al punt desitjat per veure el nom de l'estació.

Feu clic per veure les observacions i els pronòstics meteorològics.

Per canviar el mapa: feu clic els botons verds amb una creu de color negre per apropar; al botó verd amb un guió per allunyar la imatge; o en les fletxes verdes per a mapes adjacents.


METAR-TAF: